Ceiba, Puerto Rico
Current Conditions -  °F | °C
As of 11:53 AM on Saturday 25 Oct 2014 (Local Time) from TJNR Reporting Station
Broken Clouds Broken Clouds  
Wind Chill: 88°   Ceiling: 2600
Heat Index: 98°   Visibility: 10mi
Dew Point: 75°   Wind: 9mph
Humidity: 65%   Direction: 110°ESE
Pressure: 29.95"   Gusts: NA
Location:  18.26°N, 65.65°W
Report Text: TJNR 251553Z AUTO 11008KT 10SM BKN026 BKN039 BKN075 31/24 A2995 RMK AO2 SLP140 T03110239 $
Loading
Personal Weather Stations






























Interactive Weather Map
Tropical Storm Tracking
New forecast layout! Learn more

10-Day Weather Forecast

Advertisements
Track Severe Weather on mobile